Aviation Digital Data Service (ADDS)

Output produced by METARs form (1219 UTC 29 January 2015)
found at http://aviationweather.gov/adds/metars/
 
KBWI 291132Z 2912/3018 VRB04KT P6SM FEW250 
     FM291700 15008G16KT P6SM SCT050 OVC090 
     FM292100 14009KT 3SM -RAPL BKN025 OVC050 
     FM300000 17008KT P6SM BKN050 
     FM300400 22008KT P6SM BKN050 
     FM300900 27012KT P6SM BKN050 
     FM301400 30020G35KT P6SM BKN050